sensor_id;sensor_type;location;lat;lon;timestamp;temperature;humidity
52103;DHT22;38101;53.126;6.878;2023-06-22T00:01:05;18.60;99.90
52103;DHT22;38101;53.126;6.878;2023-06-22T00:03:31;18.60;99.90
52103;DHT22;38101;53.126;6.878;2023-06-22T00:05:57;18.60;99.90
52103;DHT22;38101;53.126;6.878;2023-06-22T00:08:23;18.50;99.90
52103;DHT22;38101;53.126;6.878;2023-06-22T00:10:48;18.50;99.90
52103;DHT22;38101;53.126;6.878;2023-06-22T00:13:14;18.50;99.90
52103;DHT22;38101;53.126;6.878;2023-06-22T00:15:41;18.50;99.90
52103;DHT22;38101;53.126;6.878;2023-06-22T00:18:08;18.40;99.90
52103;DHT22;38101;53.126;6.878;2023-06-22T00:20:35;18.30;99.90
52103;DHT22;38101;53.126;6.878;2023-06-22T00:23:05;18.30;99.90
52103;DHT22;38101;53.126;6.878;2023-06-22T00:25:37;18.30;99.90
52103;DHT22;38101;53.126;6.878;2023-06-22T00:28:04;18.30;99.90
52103;DHT22;38101;53.126;6.878;2023-06-22T00:30:31;18.20;99.90
52103;DHT22;38101;53.126;6.878;2023-06-22T00:32:57;18.20;99.90
52103;DHT22;38101;53.126;6.878;2023-06-22T00:35:24;18.10;99.90
52103;DHT22;38101;53.126;6.878;2023-06-22T00:37:57;18.10;99.90
52103;DHT22;38101;53.126;6.878;2023-06-22T00:40:33;18.10;99.90
52103;DHT22;38101;53.126;6.878;2023-06-22T00:43:00;18.10;99.90
52103;DHT22;38101;53.126;6.878;2023-06-22T00:45:26;18.10;99.90
52103;DHT22;38101;53.126;6.878;2023-06-22T00:47:55;18.00;99.90
52103;DHT22;38101;53.126;6.878;2023-06-22T00:50:22;18.00;99.90
52103;DHT22;38101;53.126;6.878;2023-06-22T00:52:51;17.90;99.90
52103;DHT22;38101;53.126;6.878;2023-06-22T00:55:18;17.90;99.90
52103;DHT22;38101;53.126;6.878;2023-06-22T00:57:46;17.80;99.90
52103;DHT22;38101;53.126;6.878;2023-06-22T01:00:12;17.80;99.90
52103;DHT22;38101;53.126;6.878;2023-06-22T01:02:45;17.80;99.90
52103;DHT22;38101;53.126;6.878;2023-06-22T01:05:13;17.80;99.90
52103;DHT22;38101;53.126;6.878;2023-06-22T01:13:18;17.70;99.90
52103;DHT22;38101;53.126;6.878;2023-06-22T01:15:47;17.70;99.90
52103;DHT22;38101;53.126;6.878;2023-06-22T01:18:15;17.70;99.90
52103;DHT22;38101;53.126;6.878;2023-06-22T01:20:42;17.70;99.90
52103;DHT22;38101;53.126;6.878;2023-06-22T01:23:27;17.60;99.90
52103;DHT22;38101;53.126;6.878;2023-06-22T01:28:43;17.60;99.90
52103;DHT22;38101;53.126;6.878;2023-06-22T01:31:10;17.50;99.90
52103;DHT22;38101;53.126;6.878;2023-06-22T01:33:40;17.40;99.90
52103;DHT22;38101;53.126;6.878;2023-06-22T01:36:07;17.40;99.90
52103;DHT22;38101;53.126;6.878;2023-06-22T01:38:34;17.40;99.90
52103;DHT22;38101;53.126;6.878;2023-06-22T01:41:01;17.40;99.90
52103;DHT22;38101;53.126;6.878;2023-06-22T01:43:28;17.40;99.90
52103;DHT22;38101;53.126;6.878;2023-06-22T01:45:55;17.40;99.90
52103;DHT22;38101;53.126;6.878;2023-06-22T01:48:22;17.40;99.90
52103;DHT22;38101;53.126;6.878;2023-06-22T01:50:49;17.50;99.90
52103;DHT22;38101;53.126;6.878;2023-06-22T01:53:14;17.50;99.90
52103;DHT22;38101;53.126;6.878;2023-06-22T01:55:40;17.50;99.90
52103;DHT22;38101;53.126;6.878;2023-06-22T01:58:06;17.40;99.90
52103;DHT22;38101;53.126;6.878;2023-06-22T02:00:34;17.40;99.90
52103;DHT22;38101;53.126;6.878;2023-06-22T02:03:14;17.50;99.90
52103;DHT22;38101;53.126;6.878;2023-06-22T02:05:56;17.40;99.90
52103;DHT22;38101;53.126;6.878;2023-06-22T02:08:51;17.40;99.90
52103;DHT22;38101;53.126;6.878;2023-06-22T02:11:18;17.40;99.90
52103;DHT22;38101;53.126;6.878;2023-06-22T02:13:46;17.40;99.90
52103;DHT22;38101;53.126;6.878;2023-06-22T02:16:12;17.40;99.90
52103;DHT22;38101;53.126;6.878;2023-06-22T02:18:38;17.40;99.90
52103;DHT22;38101;53.126;6.878;2023-06-22T02:21:06;17.40;99.90
52103;DHT22;38101;53.126;6.878;2023-06-22T02:23:32;17.40;99.90
52103;DHT22;38101;53.126;6.878;2023-06-22T02:26:03;17.40;99.90
52103;DHT22;38101;53.126;6.878;2023-06-22T02:28:29;17.30;99.90
52103;DHT22;38101;53.126;6.878;2023-06-22T02:30:54;17.30;99.90
52103;DHT22;38101;53.126;6.878;2023-06-22T02:33:20;17.30;99.90
52103;DHT22;38101;53.126;6.878;2023-06-22T02:35:46;17.30;99.90
52103;DHT22;38101;53.126;6.878;2023-06-22T02:38:14;17.20;99.90
52103;DHT22;38101;53.126;6.878;2023-06-22T02:40:40;17.10;99.90
52103;DHT22;38101;53.126;6.878;2023-06-22T02:43:06;17.00;99.90
52103;DHT22;38101;53.126;6.878;2023-06-22T02:45:31;17.00;99.90
52103;DHT22;38101;53.126;6.878;2023-06-22T02:47:57;16.90;99.90
52103;DHT22;38101;53.126;6.878;2023-06-22T02:50:23;16.90;99.90
52103;DHT22;38101;53.126;6.878;2023-06-22T02:52:49;17.00;99.90
52103;DHT22;38101;53.126;6.878;2023-06-22T02:55:15;17.00;99.90
52103;DHT22;38101;53.126;6.878;2023-06-22T02:57:40;17.10;99.90
52103;DHT22;38101;53.126;6.878;2023-06-22T03:00:10;17.00;99.90
52103;DHT22;38101;53.126;6.878;2023-06-22T03:02:49;17.00;99.90
52103;DHT22;38101;53.126;6.878;2023-06-22T03:05:15;16.90;99.90
52103;DHT22;38101;53.126;6.878;2023-06-22T03:07:46;16.80;99.90
52103;DHT22;38101;53.126;6.878;2023-06-22T03:10:14;16.80;99.90
52103;DHT22;38101;53.126;6.878;2023-06-22T03:12:40;16.70;99.90
52103;DHT22;38101;53.126;6.878;2023-06-22T03:15:10;16.70;99.90
52103;DHT22;38101;53.126;6.878;2023-06-22T03:17:37;16.70;99.90
52103;DHT22;38101;53.126;6.878;2023-06-22T03:20:05;16.70;99.90
52103;DHT22;38101;53.126;6.878;2023-06-22T03:22:38;16.80;99.90
52103;DHT22;38101;53.126;6.878;2023-06-22T03:25:04;16.80;99.90
52103;DHT22;38101;53.126;6.878;2023-06-22T03:27:36;16.70;99.90
52103;DHT22;38101;53.126;6.878;2023-06-22T03:30:02;16.60;99.90
52103;DHT22;38101;53.126;6.878;2023-06-22T03:32:28;16.60;99.90
52103;DHT22;38101;53.126;6.878;2023-06-22T03:34:54;16.60;99.90
52103;DHT22;38101;53.126;6.878;2023-06-22T03:37:19;16.50;99.90
52103;DHT22;38101;53.126;6.878;2023-06-22T03:39:45;16.50;99.90
52103;DHT22;38101;53.126;6.878;2023-06-22T03:42:11;16.50;99.90
52103;DHT22;38101;53.126;6.878;2023-06-22T03:44:36;16.50;99.90
52103;DHT22;38101;53.126;6.878;2023-06-22T03:47:05;16.50;99.90
52103;DHT22;38101;53.126;6.878;2023-06-22T03:49:33;16.50;99.90
52103;DHT22;38101;53.126;6.878;2023-06-22T03:52:00;16.60;99.90
52103;DHT22;38101;53.126;6.878;2023-06-22T03:54:27;16.60;99.90
52103;DHT22;38101;53.126;6.878;2023-06-22T03:56:53;16.60;99.90
52103;DHT22;38101;53.126;6.878;2023-06-22T03:59:19;16.70;99.90
52103;DHT22;38101;53.126;6.878;2023-06-22T04:01:45;16.70;99.90
52103;DHT22;38101;53.126;6.878;2023-06-22T04:04:11;16.70;99.90
52103;DHT22;38101;53.126;6.878;2023-06-22T04:06:38;16.70;99.90
52103;DHT22;38101;53.126;6.878;2023-06-22T04:09:05;16.70;99.90
52103;DHT22;38101;53.126;6.878;2023-06-22T04:11:31;16.70;99.90
52103;DHT22;38101;53.126;6.878;2023-06-22T04:13:56;16.70;99.90
52103;DHT22;38101;53.126;6.878;2023-06-22T04:16:22;16.80;99.90
52103;DHT22;38101;53.126;6.878;2023-06-22T04:18:48;16.80;99.90
52103;DHT22;38101;53.126;6.878;2023-06-22T04:21:14;16.80;99.90
52103;DHT22;38101;53.126;6.878;2023-06-22T04:23:39;16.90;99.90
52103;DHT22;38101;53.126;6.878;2023-06-22T04:26:05;16.90;99.90
52103;DHT22;38101;53.126;6.878;2023-06-22T04:28:31;16.90;99.90
52103;DHT22;38101;53.126;6.878;2023-06-22T04:31:01;16.90;99.90
52103;DHT22;38101;53.126;6.878;2023-06-22T04:33:27;17.00;99.90
52103;DHT22;38101;53.126;6.878;2023-06-22T04:35:55;17.00;99.90
52103;DHT22;38101;53.126;6.878;2023-06-22T04:38:22;17.00;99.90
52103;DHT22;38101;53.126;6.878;2023-06-22T04:40:48;17.00;99.90
52103;DHT22;38101;53.126;6.878;2023-06-22T04:43:14;17.00;99.90
52103;DHT22;38101;53.126;6.878;2023-06-22T04:45:40;17.10;99.90
52103;DHT22;38101;53.126;6.878;2023-06-22T04:48:06;17.10;99.90
52103;DHT22;38101;53.126;6.878;2023-06-22T04:50:32;17.20;99.90
52103;DHT22;38101;53.126;6.878;2023-06-22T04:52:57;17.20;99.90
52103;DHT22;38101;53.126;6.878;2023-06-22T04:55:23;17.20;99.90
52103;DHT22;38101;53.126;6.878;2023-06-22T04:57:51;17.20;99.90
52103;DHT22;38101;53.126;6.878;2023-06-22T05:00:20;17.30;99.90
52103;DHT22;38101;53.126;6.878;2023-06-22T05:02:48;17.30;99.90
52103;DHT22;38101;53.126;6.878;2023-06-22T05:05:15;17.40;99.90
52103;DHT22;38101;53.126;6.878;2023-06-22T05:07:44;17.40;99.90
52103;DHT22;38101;53.126;6.878;2023-06-22T05:10:11;17.50;99.90
52103;DHT22;38101;53.126;6.878;2023-06-22T05:12:38;17.60;99.90
52103;DHT22;38101;53.126;6.878;2023-06-22T05:15:06;17.60;99.90
52103;DHT22;38101;53.126;6.878;2023-06-22T05:17:32;17.70;99.90
52103;DHT22;38101;53.126;6.878;2023-06-22T05:19:58;17.80;99.90
52103;DHT22;38101;53.126;6.878;2023-06-22T05:22:23;17.90;99.90
52103;DHT22;38101;53.126;6.878;2023-06-22T05:24:49;17.90;99.90
52103;DHT22;38101;53.126;6.878;2023-06-22T05:27:15;18.00;99.90
52103;DHT22;38101;53.126;6.878;2023-06-22T05:29:40;18.00;99.90
52103;DHT22;38101;53.126;6.878;2023-06-22T05:32:08;18.10;99.90
52103;DHT22;38101;53.126;6.878;2023-06-22T05:34:33;18.20;99.90
52103;DHT22;38101;53.126;6.878;2023-06-22T05:36:59;18.20;99.90
52103;DHT22;38101;53.126;6.878;2023-06-22T05:39:25;18.30;99.90
52103;DHT22;38101;53.126;6.878;2023-06-22T05:41:51;18.30;99.90
52103;DHT22;38101;53.126;6.878;2023-06-22T05:44:17;18.40;99.90
52103;DHT22;38101;53.126;6.878;2023-06-22T05:46:44;18.50;99.90
52103;DHT22;38101;53.126;6.878;2023-06-22T05:49:11;18.50;99.90
52103;DHT22;38101;53.126;6.878;2023-06-22T05:51:37;18.60;99.90
52103;DHT22;38101;53.126;6.878;2023-06-22T05:54:02;18.70;99.90
52103;DHT22;38101;53.126;6.878;2023-06-22T05:56:28;18.80;99.90
52103;DHT22;38101;53.126;6.878;2023-06-22T05:58:54;18.80;99.90
52103;DHT22;38101;53.126;6.878;2023-06-22T06:01:21;18.90;99.90
52103;DHT22;38101;53.126;6.878;2023-06-22T06:03:46;18.90;99.90
52103;DHT22;38101;53.126;6.878;2023-06-22T06:06:12;19.00;99.90
52103;DHT22;38101;53.126;6.878;2023-06-22T06:08:39;19.10;99.90
52103;DHT22;38101;53.126;6.878;2023-06-22T06:11:05;19.10;99.90
52103;DHT22;38101;53.126;6.878;2023-06-22T06:13:30;19.20;99.90
52103;DHT22;38101;53.126;6.878;2023-06-22T06:15:56;19.20;99.90
52103;DHT22;38101;53.126;6.878;2023-06-22T06:18:22;19.30;99.90
52103;DHT22;38101;53.126;6.878;2023-06-22T06:20:48;19.30;99.90
52103;DHT22;38101;53.126;6.878;2023-06-22T06:23:14;19.30;99.90
52103;DHT22;38101;53.126;6.878;2023-06-22T06:25:39;19.40;99.90
52103;DHT22;38101;53.126;6.878;2023-06-22T06:28:05;19.40;99.90
52103;DHT22;38101;53.126;6.878;2023-06-22T06:30:31;19.50;99.90
52103;DHT22;38101;53.126;6.878;2023-06-22T06:32:57;19.40;99.90
52103;DHT22;38101;53.126;6.878;2023-06-22T06:35:22;19.50;99.90
52103;DHT22;38101;53.126;6.878;2023-06-22T06:37:49;19.50;99.90
52103;DHT22;38101;53.126;6.878;2023-06-22T06:40:17;19.60;99.90
52103;DHT22;38101;53.126;6.878;2023-06-22T06:42:44;19.60;99.90
52103;DHT22;38101;53.126;6.878;2023-06-22T06:45:21;19.70;99.90
52103;DHT22;38101;53.126;6.878;2023-06-22T06:47:51;19.70;99.90
52103;DHT22;38101;53.126;6.878;2023-06-22T06:50:17;19.80;99.90
52103;DHT22;38101;53.126;6.878;2023-06-22T06:52:43;19.80;99.90
52103;DHT22;38101;53.126;6.878;2023-06-22T06:55:10;19.90;99.90
52103;DHT22;38101;53.126;6.878;2023-06-22T06:57:40;20.00;99.90
52103;DHT22;38101;53.126;6.878;2023-06-22T07:00:10;20.00;99.90
52103;DHT22;38101;53.126;6.878;2023-06-22T07:02:41;20.10;99.90
52103;DHT22;38101;53.126;6.878;2023-06-22T07:05:08;20.10;99.90
52103;DHT22;38101;53.126;6.878;2023-06-22T07:07:34;20.20;99.90
52103;DHT22;38101;53.126;6.878;2023-06-22T07:10:00;20.20;99.90
52103;DHT22;38101;53.126;6.878;2023-06-22T07:12:25;20.30;99.90
52103;DHT22;38101;53.126;6.878;2023-06-22T07:14:52;20.30;99.90
52103;DHT22;38101;53.126;6.878;2023-06-22T07:17:18;20.40;99.90
52103;DHT22;38101;53.126;6.878;2023-06-22T07:19:44;20.40;99.90
52103;DHT22;38101;53.126;6.878;2023-06-22T07:22:09;20.50;99.90
52103;DHT22;38101;53.126;6.878;2023-06-22T07:24:35;20.50;99.90
52103;DHT22;38101;53.126;6.878;2023-06-22T07:27:01;20.60;99.90
52103;DHT22;38101;53.126;6.878;2023-06-22T07:29:28;20.60;99.90
52103;DHT22;38101;53.126;6.878;2023-06-22T07:31:54;20.70;99.90
52103;DHT22;38101;53.126;6.878;2023-06-22T07:34:22;20.80;99.90
52103;DHT22;38101;53.126;6.878;2023-06-22T07:36:47;20.80;99.90
52103;DHT22;38101;53.126;6.878;2023-06-22T07:39:13;20.90;99.90
52103;DHT22;38101;53.126;6.878;2023-06-22T07:41:40;21.00;99.90
52103;DHT22;38101;53.126;6.878;2023-06-22T07:44:06;21.10;99.90
52103;DHT22;38101;53.126;6.878;2023-06-22T07:46:32;21.10;99.90
52103;DHT22;38101;53.126;6.878;2023-06-22T07:48:58;21.20;99.90
52103;DHT22;38101;53.126;6.878;2023-06-22T07:51:25;21.20;99.90
52103;DHT22;38101;53.126;6.878;2023-06-22T07:53:51;21.20;99.90
52103;DHT22;38101;53.126;6.878;2023-06-22T07:56:16;21.30;99.90
52103;DHT22;38101;53.126;6.878;2023-06-22T07:58:45;21.30;99.90
52103;DHT22;38101;53.126;6.878;2023-06-22T08:01:12;21.40;99.90
52103;DHT22;38101;53.126;6.878;2023-06-22T08:03:38;21.40;99.90
52103;DHT22;38101;53.126;6.878;2023-06-22T08:06:05;21.50;99.90
52103;DHT22;38101;53.126;6.878;2023-06-22T08:08:31;21.50;99.90
52103;DHT22;38101;53.126;6.878;2023-06-22T08:10:57;21.50;99.90
52103;DHT22;38101;53.126;6.878;2023-06-22T08:13:22;21.60;99.90
52103;DHT22;38101;53.126;6.878;2023-06-22T08:15:48;21.60;99.90
52103;DHT22;38101;53.126;6.878;2023-06-22T08:18:14;21.70;99.90
52103;DHT22;38101;53.126;6.878;2023-06-22T08:20:42;21.80;99.90
52103;DHT22;38101;53.126;6.878;2023-06-22T08:23:07;21.80;99.90
52103;DHT22;38101;53.126;6.878;2023-06-22T08:25:34;21.80;99.90
52103;DHT22;38101;53.126;6.878;2023-06-22T08:28:03;21.90;99.90
52103;DHT22;38101;53.126;6.878;2023-06-22T08:30:29;22.00;99.90
52103;DHT22;38101;53.126;6.878;2023-06-22T08:32:54;22.00;99.90
52103;DHT22;38101;53.126;6.878;2023-06-22T08:35:22;22.10;99.90
52103;DHT22;38101;53.126;6.878;2023-06-22T08:37:48;22.20;99.90
52103;DHT22;38101;53.126;6.878;2023-06-22T08:40:18;22.20;99.90
52103;DHT22;38101;53.126;6.878;2023-06-22T08:42:45;22.20;99.90
52103;DHT22;38101;53.126;6.878;2023-06-22T08:45:11;22.30;99.90
52103;DHT22;38101;53.126;6.878;2023-06-22T08:47:37;22.40;99.90
52103;DHT22;38101;53.126;6.878;2023-06-22T08:50:04;22.50;99.90
52103;DHT22;38101;53.126;6.878;2023-06-22T08:52:30;22.50;99.90
52103;DHT22;38101;53.126;6.878;2023-06-22T08:54:56;22.60;99.90
52103;DHT22;38101;53.126;6.878;2023-06-22T08:57:21;22.70;99.90
52103;DHT22;38101;53.126;6.878;2023-06-22T08:59:47;22.70;99.90
52103;DHT22;38101;53.126;6.878;2023-06-22T09:02:13;22.80;99.90
52103;DHT22;38101;53.126;6.878;2023-06-22T09:04:39;22.80;99.90
52103;DHT22;38101;53.126;6.878;2023-06-22T09:07:05;22.90;99.90
52103;DHT22;38101;53.126;6.878;2023-06-22T09:09:30;22.90;99.90
52103;DHT22;38101;53.126;6.878;2023-06-22T09:11:56;23.00;99.90
52103;DHT22;38101;53.126;6.878;2023-06-22T09:14:22;23.00;99.90
52103;DHT22;38101;53.126;6.878;2023-06-22T09:16:47;23.10;99.90
52103;DHT22;38101;53.126;6.878;2023-06-22T09:19:13;23.20;99.90
52103;DHT22;38101;53.126;6.878;2023-06-22T09:21:39;23.30;99.90
52103;DHT22;38101;53.126;6.878;2023-06-22T09:24:04;23.30;99.90
52103;DHT22;38101;53.126;6.878;2023-06-22T09:26:30;23.40;99.90
52103;DHT22;38101;53.126;6.878;2023-06-22T09:28:56;23.50;99.90
52103;DHT22;38101;53.126;6.878;2023-06-22T09:31:21;23.50;99.90
52103;DHT22;38101;53.126;6.878;2023-06-22T09:33:52;23.50;99.90
52103;DHT22;38101;53.126;6.878;2023-06-22T09:36:18;23.60;99.90
52103;DHT22;38101;53.126;6.878;2023-06-22T09:38:44;23.60;99.90
52103;DHT22;38101;53.126;6.878;2023-06-22T09:41:09;23.70;99.90
52103;DHT22;38101;53.126;6.878;2023-06-22T09:43:35;23.80;99.90
52103;DHT22;38101;53.126;6.878;2023-06-22T09:46:02;23.80;99.90
52103;DHT22;38101;53.126;6.878;2023-06-22T09:48:28;23.80;99.90
52103;DHT22;38101;53.126;6.878;2023-06-22T09:50:55;23.90;99.90
52103;DHT22;38101;53.126;6.878;2023-06-22T09:53:20;24.00;99.90
52103;DHT22;38101;53.126;6.878;2023-06-22T09:55:46;24.00;99.90
52103;DHT22;38101;53.126;6.878;2023-06-22T09:58:12;24.10;99.90
52103;DHT22;38101;53.126;6.878;2023-06-22T10:00:38;24.10;99.90
52103;DHT22;38101;53.126;6.878;2023-06-22T10:03:03;24.10;99.90
52103;DHT22;38101;53.126;6.878;2023-06-22T10:05:29;24.20;99.90
52103;DHT22;38101;53.126;6.878;2023-06-22T10:07:55;24.30;99.90
52103;DHT22;38101;53.126;6.878;2023-06-22T10:10:20;24.30;99.90
52103;DHT22;38101;53.126;6.878;2023-06-22T10:12:48;24.30;99.90
52103;DHT22;38101;53.126;6.878;2023-06-22T10:15:19;24.40;99.90
52103;DHT22;38101;53.126;6.878;2023-06-22T10:17:46;24.60;99.90
52103;DHT22;38101;53.126;6.878;2023-06-22T10:20:12;24.60;99.90
52103;DHT22;38101;53.126;6.878;2023-06-22T10:22:40;24.70;99.90
52103;DHT22;38101;53.126;6.878;2023-06-22T10:25:06;24.80;99.90
52103;DHT22;38101;53.126;6.878;2023-06-22T10:27:32;25.00;99.90
52103;DHT22;38101;53.126;6.878;2023-06-22T10:29:57;25.10;99.90
52103;DHT22;38101;53.126;6.878;2023-06-22T10:32:23;25.20;99.90
52103;DHT22;38101;53.126;6.878;2023-06-22T10:34:49;25.20;99.90
52103;DHT22;38101;53.126;6.878;2023-06-22T10:37:14;25.30;99.90
52103;DHT22;38101;53.126;6.878;2023-06-22T10:39:40;25.40;99.90
52103;DHT22;38101;53.126;6.878;2023-06-22T10:42:06;25.40;99.90
52103;DHT22;38101;53.126;6.878;2023-06-22T10:44:31;25.50;99.90
52103;DHT22;38101;53.126;6.878;2023-06-22T10:46:57;25.60;99.90
52103;DHT22;38101;53.126;6.878;2023-06-22T10:49:23;25.60;99.90
52103;DHT22;38101;53.126;6.878;2023-06-22T10:51:48;25.60;99.90
52103;DHT22;38101;53.126;6.878;2023-06-22T10:54:14;25.70;99.90
52103;DHT22;38101;53.126;6.878;2023-06-22T10:56:42;25.70;99.90
52103;DHT22;38101;53.126;6.878;2023-06-22T10:59:08;25.80;99.90
52103;DHT22;38101;53.126;6.878;2023-06-22T11:01:34;25.90;99.90
52103;DHT22;38101;53.126;6.878;2023-06-22T11:03:59;26.10;99.90
52103;DHT22;38101;53.126;6.878;2023-06-22T11:06:25;26.20;99.90
52103;DHT22;38101;53.126;6.878;2023-06-22T11:08:51;26.30;99.90
52103;DHT22;38101;53.126;6.878;2023-06-22T11:11:16;26.40;99.90
52103;DHT22;38101;53.126;6.878;2023-06-22T11:13:45;26.50;99.90
52103;DHT22;38101;53.126;6.878;2023-06-22T11:16:11;26.50;99.90
52103;DHT22;38101;53.126;6.878;2023-06-22T11:18:37;26.50;99.90
52103;DHT22;38101;53.126;6.878;2023-06-22T11:21:02;26.40;99.90
52103;DHT22;38101;53.126;6.878;2023-06-22T11:23:28;26.50;99.90
52103;DHT22;38101;53.126;6.878;2023-06-22T11:25:54;26.50;99.90
52103;DHT22;38101;53.126;6.878;2023-06-22T11:28:20;26.60;99.90
52103;DHT22;38101;53.126;6.878;2023-06-22T11:30:46;26.60;99.90
52103;DHT22;38101;53.126;6.878;2023-06-22T11:33:12;26.60;99.90
52103;DHT22;38101;53.126;6.878;2023-06-22T11:35:37;26.60;99.90
52103;DHT22;38101;53.126;6.878;2023-06-22T11:38:03;26.60;99.90
52103;DHT22;38101;53.126;6.878;2023-06-22T11:40:30;26.50;99.90
52103;DHT22;38101;53.126;6.878;2023-06-22T11:42:56;26.50;99.90
52103;DHT22;38101;53.126;6.878;2023-06-22T11:45:21;26.40;99.90
52103;DHT22;38101;53.126;6.878;2023-06-22T11:47:47;26.40;99.90
52103;DHT22;38101;53.126;6.878;2023-06-22T11:50:13;26.40;99.90
52103;DHT22;38101;53.126;6.878;2023-06-22T11:52:39;26.40;99.90
52103;DHT22;38101;53.126;6.878;2023-06-22T11:55:05;26.40;99.90
52103;DHT22;38101;53.126;6.878;2023-06-22T11:57:36;26.50;99.90
52103;DHT22;38101;53.126;6.878;2023-06-22T12:00:03;26.50;99.90
52103;DHT22;38101;53.126;6.878;2023-06-22T12:02:40;26.60;99.90
52103;DHT22;38101;53.126;6.878;2023-06-22T12:05:06;26.60;99.90
52103;DHT22;38101;53.126;6.878;2023-06-22T12:07:33;26.70;99.90
52103;DHT22;38101;53.126;6.878;2023-06-22T12:09:59;26.70;99.90
52103;DHT22;38101;53.126;6.878;2023-06-22T12:12:24;26.70;99.90
52103;DHT22;38101;53.126;6.878;2023-06-22T12:14:50;26.70;99.90
52103;DHT22;38101;53.126;6.878;2023-06-22T12:17:16;26.80;99.90
52103;DHT22;38101;53.126;6.878;2023-06-22T12:19:41;26.90;99.90
52103;DHT22;38101;53.126;6.878;2023-06-22T12:22:07;26.90;99.90
52103;DHT22;38101;53.126;6.878;2023-06-22T12:24:32;27.00;99.90
52103;DHT22;38101;53.126;6.878;2023-06-22T12:26:58;27.00;99.90
52103;DHT22;38101;53.126;6.878;2023-06-22T12:29:24;27.10;99.90
52103;DHT22;38101;53.126;6.878;2023-06-22T12:31:49;27.10;99.90
52103;DHT22;38101;53.126;6.878;2023-06-22T12:34:15;27.10;99.90
52103;DHT22;38101;53.126;6.878;2023-06-22T12:36:41;27.00;99.90
52103;DHT22;38101;53.126;6.878;2023-06-22T12:39:07;27.00;99.90
52103;DHT22;38101;53.126;6.878;2023-06-22T12:41:32;27.00;99.90
52103;DHT22;38101;53.126;6.878;2023-06-22T12:43:58;27.00;99.90
52103;DHT22;38101;53.126;6.878;2023-06-22T12:46:24;27.00;99.90
52103;DHT22;38101;53.126;6.878;2023-06-22T12:48:49;27.00;99.90
52103;DHT22;38101;53.126;6.878;2023-06-22T12:51:24;27.00;99.90
52103;DHT22;38101;53.126;6.878;2023-06-22T12:53:50;27.00;99.90
52103;DHT22;38101;53.126;6.878;2023-06-22T12:56:16;26.90;99.90
52103;DHT22;38101;53.126;6.878;2023-06-22T12:58:41;26.90;99.90
52103;DHT22;38101;53.126;6.878;2023-06-22T13:01:07;26.90;99.90
52103;DHT22;38101;53.126;6.878;2023-06-22T13:03:33;26.80;99.90
52103;DHT22;38101;53.126;6.878;2023-06-22T13:05:58;26.80;99.90
52103;DHT22;38101;53.126;6.878;2023-06-22T13:08:25;26.80;99.90
52103;DHT22;38101;53.126;6.878;2023-06-22T13:10:50;26.60;99.90
52103;DHT22;38101;53.126;6.878;2023-06-22T13:13:16;26.60;99.90
52103;DHT22;38101;53.126;6.878;2023-06-22T13:15:42;26.40;99.90
52103;DHT22;38101;53.126;6.878;2023-06-22T13:18:08;26.40;99.90
52103;DHT22;38101;53.126;6.878;2023-06-22T13:20:34;26.30;99.90
52103;DHT22;38101;53.126;6.878;2023-06-22T13:22:59;26.20;99.90
52103;DHT22;38101;53.126;6.878;2023-06-22T13:25:25;26.20;99.90
52103;DHT22;38101;53.126;6.878;2023-06-22T13:27:52;26.10;99.90
52103;DHT22;38101;53.126;6.878;2023-06-22T13:30:17;26.10;99.90
52103;DHT22;38101;53.126;6.878;2023-06-22T13:32:43;26.10;99.90
52103;DHT22;38101;53.126;6.878;2023-06-22T13:35:10;26.00;99.90
52103;DHT22;38101;53.126;6.878;2023-06-22T13:37:35;26.00;99.90
52103;DHT22;38101;53.126;6.878;2023-06-22T13:40:01;25.90;99.90
52103;DHT22;38101;53.126;6.878;2023-06-22T13:42:30;26.00;99.90
52103;DHT22;38101;53.126;6.878;2023-06-22T13:44:56;26.00;99.90
52103;DHT22;38101;53.126;6.878;2023-06-22T13:47:22;25.90;99.90
52103;DHT22;38101;53.126;6.878;2023-06-22T13:49:47;25.90;99.90
52103;DHT22;38101;53.126;6.878;2023-06-22T13:52:13;26.00;99.90
52103;DHT22;38101;53.126;6.878;2023-06-22T13:54:39;25.90;99.90
52103;DHT22;38101;53.126;6.878;2023-06-22T13:57:05;25.90;99.90
52103;DHT22;38101;53.126;6.878;2023-06-22T13:59:31;25.80;99.90
52103;DHT22;38101;53.126;6.878;2023-06-22T14:01:57;25.80;99.90
52103;DHT22;38101;53.126;6.878;2023-06-22T14:04:26;25.80;99.90
52103;DHT22;38101;53.126;6.878;2023-06-22T14:06:51;25.80;99.90
52103;DHT22;38101;53.126;6.878;2023-06-22T14:09:17;25.70;99.90
52103;DHT22;38101;53.126;6.878;2023-06-22T14:11:44;25.70;99.90
52103;DHT22;38101;53.126;6.878;2023-06-22T14:14:10;25.60;99.90
52103;DHT22;38101;53.126;6.878;2023-06-22T14:16:35;25.60;99.90
52103;DHT22;38101;53.126;6.878;2023-06-22T14:19:01;25.50;99.90
52103;DHT22;38101;53.126;6.878;2023-06-22T14:21:27;25.40;99.90
52103;DHT22;38101;53.126;6.878;2023-06-22T14:23:53;25.30;99.90
52103;DHT22;38101;53.126;6.878;2023-06-22T14:26:18;25.20;99.90
52103;DHT22;38101;53.126;6.878;2023-06-22T14:28:48;25.20;99.90
52103;DHT22;38101;53.126;6.878;2023-06-22T14:31:16;25.10;99.90
52103;DHT22;38101;53.126;6.878;2023-06-22T14:33:51;25.10;99.90
52103;DHT22;38101;53.126;6.878;2023-06-22T14:36:17;25.00;99.90
52103;DHT22;38101;53.126;6.878;2023-06-22T14:38:43;24.90;99.90
52103;DHT22;38101;53.126;6.878;2023-06-22T14:41:09;24.90;99.90
52103;DHT22;38101;53.126;6.878;2023-06-22T14:43:35;24.90;99.90
52103;DHT22;38101;53.126;6.878;2023-06-22T14:46:01;24.80;99.90
52103;DHT22;38101;53.126;6.878;2023-06-22T14:48:27;24.80;99.90
52103;DHT22;38101;53.126;6.878;2023-06-22T14:50:53;24.80;99.90
52103;DHT22;38101;53.126;6.878;2023-06-22T14:53:19;24.70;99.90
52103;DHT22;38101;53.126;6.878;2023-06-22T14:55:45;24.70;99.90
52103;DHT22;38101;53.126;6.878;2023-06-22T14:58:11;24.60;99.90
52103;DHT22;38101;53.126;6.878;2023-06-22T15:00:37;24.60;99.90
52103;DHT22;38101;53.126;6.878;2023-06-22T15:03:04;24.50;99.90
52103;DHT22;38101;53.126;6.878;2023-06-22T15:05:32;24.50;99.90
52103;DHT22;38101;53.126;6.878;2023-06-22T15:07:58;24.40;99.90
52103;DHT22;38101;53.126;6.878;2023-06-22T15:10:24;24.30;99.90
52103;DHT22;38101;53.126;6.878;2023-06-22T15:12:50;24.30;99.90
52103;DHT22;38101;53.126;6.878;2023-06-22T15:15:16;24.20;99.90
52103;DHT22;38101;53.126;6.878;2023-06-22T15:17:41;24.10;99.90
52103;DHT22;38101;53.126;6.878;2023-06-22T15:20:07;24.10;99.90
52103;DHT22;38101;53.126;6.878;2023-06-22T15:22:33;24.10;99.90
52103;DHT22;38101;53.126;6.878;2023-06-22T15:24:59;24.00;99.90
52103;DHT22;38101;53.126;6.878;2023-06-22T15:27:25;24.00;99.90
52103;DHT22;38101;53.126;6.878;2023-06-22T15:29:51;23.90;99.90
52103;DHT22;38101;53.126;6.878;2023-06-22T15:32:16;23.80;99.90
52103;DHT22;38101;53.126;6.878;2023-06-22T15:34:42;23.80;99.90